Salt Lake City, Utah
Traffic Map
Current Weather Conditions
Salt Lake City, Utah
Few Clouds
Few Clouds
93°
Feels Like: 93°
Wind Chill: 93° Ceiling: Unl
Heat Index: 93° Visibility: 10mi
Dew Point: 19° Wind: 12mph
Humidity: 7% Direction: 320° (NW)
Pressure: 30.05in Gusts: 0mph
Raw Report DataKSLC 232254Z 32010KT 10SM FEW060 34/M07 A3005 RMK AO2 SLP114 FU FEW060 FU S-NW T03391072
Traffic Incident Summary
Active as of:
Severity:
Category:
InformationThere was an issue retrieving the traffic information for this location. Please try a different location or try again shortly.
Advertisements
Track Severe Weather on mobile